createdAt,value
2018-12-13T00:00:32.939Z,1021.66
2018-12-13T00:01:32.930Z,1021.65
2018-12-13T00:02:32.951Z,1021.67
2018-12-13T00:03:32.909Z,1021.66
2018-12-13T00:04:32.900Z,1021.64
2018-12-13T00:05:32.887Z,1021.62
2018-12-13T00:06:33.488Z,1021.60
2018-12-13T00:07:32.901Z,1021.62
2018-12-13T00:08:32.853Z,1021.54
2018-12-13T00:09:32.848Z,1021.67
2018-12-13T00:10:32.843Z,1021.53
2018-12-13T00:11:32.828Z,1021.54
2018-12-13T00:12:33.360Z,1021.54
2018-12-13T00:13:32.824Z,1021.51
2018-12-13T00:14:32.796Z,1021.53
2018-12-13T00:15:32.784Z,1021.48
2018-12-13T00:16:32.874Z,1021.50
2018-12-13T00:17:32.772Z,1021.49
2018-12-13T00:18:32.741Z,1021.51
2018-12-13T00:19:32.742Z,1021.43
2018-12-13T00:20:32.718Z,1021.49
2018-12-13T00:21:32.713Z,1021.46
2018-12-13T00:22:32.719Z,1021.50
2018-12-13T00:23:32.691Z,1021.48
2018-12-13T00:24:32.679Z,1021.50
2018-12-13T00:25:32.670Z,1021.48
2018-12-13T00:26:32.667Z,1021.51
2018-12-13T00:27:32.645Z,1021.51
2018-12-13T00:28:32.685Z,1021.48
2018-12-13T00:29:32.625Z,1021.51
2018-12-13T00:30:32.612Z,1021.48
2018-12-13T00:31:32.607Z,1021.45
2018-12-13T00:32:32.589Z,1021.52
2018-12-13T00:33:32.597Z,1021.51
2018-12-13T00:34:32.572Z,1021.49
2018-12-13T00:35:32.580Z,1021.49
2018-12-13T00:36:32.639Z,1021.51
2018-12-13T00:37:32.536Z,1021.49
2018-12-13T00:38:32.545Z,1021.51
2018-12-13T00:39:32.516Z,1021.52
2018-12-13T00:40:32.501Z,1021.49
2018-12-13T00:41:32.490Z,1021.50
2018-12-13T00:42:32.491Z,1021.55
2018-12-13T00:43:32.497Z,1021.53
2018-12-13T00:44:32.455Z,1021.56
2018-12-13T00:45:32.451Z,1021.50
2018-12-13T00:46:32.435Z,1021.52
2018-12-13T00:47:32.423Z,1021.54
2018-12-13T00:48:32.414Z,1021.55
2018-12-13T00:49:32.423Z,1021.51
2018-12-13T00:50:32.393Z,1021.53
2018-12-13T00:51:32.389Z,1021.53
2018-12-13T00:52:32.376Z,1021.56
2018-12-13T00:53:32.362Z,1021.51
2018-12-13T00:54:32.367Z,1021.51
2018-12-13T00:55:32.866Z,1021.49
2018-12-13T00:56:32.334Z,1021.53
2018-12-13T00:57:32.320Z,1021.48
2018-12-13T00:58:32.306Z,1021.51
2018-12-13T00:59:32.340Z,1021.53
2018-12-13T01:00:32.281Z,1021.50
2018-12-13T01:01:32.277Z,1021.49
2018-12-13T01:02:32.266Z,1021.51
2018-12-13T01:03:32.248Z,1021.50
2018-12-13T01:04:32.259Z,1021.52
2018-12-13T01:05:32.233Z,1021.55
2018-12-13T01:06:32.222Z,1021.53
2018-12-13T01:07:32.210Z,1021.59
2018-12-13T01:08:32.196Z,1021.60
2018-12-13T01:09:32.200Z,1021.57
2018-12-13T01:10:32.175Z,1021.56
2018-12-13T01:11:32.229Z,1021.56
2018-12-13T01:12:32.155Z,1021.54
2018-12-13T01:13:32.144Z,1021.52
2018-12-13T01:14:32.143Z,1021.54
2018-12-13T01:15:32.134Z,1021.56
2018-12-13T01:16:32.111Z,1021.53
2018-12-13T01:17:32.099Z,1021.48
2018-12-13T01:18:32.084Z,1021.51
2018-12-13T01:19:32.094Z,1021.52
2018-12-13T01:20:32.066Z,1021.52
2018-12-13T01:21:32.051Z,1021.54
2018-12-13T01:22:32.042Z,1021.46
2018-12-13T01:23:32.031Z,1021.47
2018-12-13T01:24:32.037Z,1021.46
2018-12-13T01:25:32.028Z,1021.45
2018-12-13T01:26:32.000Z,1021.44
2018-12-13T01:27:31.991Z,1021.46
2018-12-13T01:28:31.982Z,1021.44
2018-12-13T01:29:31.984Z,1021.47
2018-12-13T01:30:31.958Z,1021.45
2018-12-13T01:31:31.950Z,1021.45
2018-12-13T01:32:31.933Z,1021.44
2018-12-13T01:33:31.919Z,1021.44
2018-12-13T01:34:31.941Z,1021.43
2018-12-13T01:35:31.904Z,1021.44
2018-12-13T01:36:31.888Z,1021.45
2018-12-13T01:37:31.896Z,1021.43
2018-12-13T01:38:31.868Z,1021.39
2018-12-13T01:39:31.860Z,1021.39
2018-12-13T01:40:31.863Z,1021.36
2018-12-13T01:41:31.832Z,1021.33
2018-12-13T01:42:31.821Z,1021.37
2018-12-13T01:43:31.813Z,1021.35
2018-12-13T01:44:31.841Z,1021.33
2018-12-13T01:45:31.810Z,1021.35
2018-12-13T01:46:31.779Z,1021.33
2018-12-13T01:47:31.766Z,1021.28
2018-12-13T01:48:31.758Z,1021.30
2018-12-13T01:49:31.741Z,1021.31
2018-12-13T01:50:31.757Z,1021.33
2018-12-13T01:51:31.721Z,1021.31
2018-12-13T01:52:31.710Z,1021.31
2018-12-13T01:53:31.701Z,1021.32
2018-12-13T01:54:31.693Z,1021.28
2018-12-13T01:55:31.697Z,1021.32
2018-12-13T01:56:31.727Z,1021.31
2018-12-13T01:57:31.658Z,1021.30
2018-12-13T01:58:31.646Z,1021.34
2018-12-13T01:59:31.646Z,1021.31
2018-12-13T02:00:31.643Z,1021.30
2018-12-13T02:01:31.610Z,1021.28
2018-12-13T02:02:31.606Z,1021.29
2018-12-13T02:03:31.598Z,1021.34
2018-12-13T02:04:31.592Z,1021.31
2018-12-13T02:05:31.581Z,1021.32
2018-12-13T02:06:31.566Z,1021.31
2018-12-13T02:07:31.553Z,1021.30
2018-12-13T02:08:31.545Z,1021.33
2018-12-13T02:09:31.522Z,1021.30
2018-12-13T02:10:31.536Z,1021.27
2018-12-13T02:11:31.504Z,1021.29
2018-12-13T02:12:31.489Z,1021.26
2018-12-13T02:13:31.483Z,1021.26
2018-12-13T02:14:31.467Z,1021.26
2018-12-13T02:15:31.474Z,1021.22
2018-12-13T02:16:31.450Z,1021.29
2018-12-13T02:17:31.437Z,1021.20
2018-12-13T02:18:31.429Z,1021.29
2018-12-13T02:19:31.414Z,1021.23
2018-12-13T02:20:31.434Z,1021.23
2018-12-13T02:21:31.414Z,1021.28
2018-12-13T02:22:31.378Z,1021.26
2018-12-13T02:24:31.368Z,1021.19
2018-12-13T02:25:31.358Z,1021.22
2018-12-13T02:26:31.360Z,1021.19
2018-12-13T02:27:31.326Z,1021.18
2018-12-13T02:28:31.316Z,1021.16
2018-12-13T02:29:31.304Z,1021.17
2018-12-13T02:30:31.298Z,1021.18
2018-12-13T02:31:31.305Z,1021.16
2018-12-13T02:32:31.272Z,1021.14
2018-12-13T02:33:31.260Z,1021.17
2018-12-13T02:34:31.248Z,1021.13
2018-12-13T02:35:31.285Z,1021.14
2018-12-13T02:36:31.267Z,1021.14
2018-12-13T02:37:31.213Z,1021.12
2018-12-13T02:38:31.203Z,1021.14
2018-12-13T02:39:31.197Z,1021.14
2018-12-13T02:40:31.183Z,1021.18
2018-12-13T02:41:31.188Z,1021.17
2018-12-13T02:42:31.162Z,1021.16
2018-12-13T02:43:31.153Z,1021.15
2018-12-13T02:44:31.142Z,1021.19
2018-12-13T02:45:31.126Z,1021.16
2018-12-13T02:46:31.137Z,1021.22
2018-12-13T02:47:31.109Z,1021.17
2018-12-13T02:48:31.094Z,1021.16
2018-12-13T02:49:31.083Z,1021.15
2018-12-13T02:50:31.085Z,1021.17
2018-12-13T02:51:31.086Z,1021.17
2018-12-13T02:52:31.056Z,1021.22
2018-12-13T02:53:31.043Z,1021.18
2018-12-13T02:54:31.042Z,1021.22
2018-12-13T02:55:31.024Z,1021.21
2018-12-13T02:56:31.039Z,1021.20
2018-12-13T02:57:31.000Z,1021.20
2018-12-13T02:58:30.989Z,1021.18
2018-12-13T02:59:30.972Z,1021.16
2018-12-13T03:00:30.965Z,1021.16
2018-12-13T03:01:30.968Z,1021.15
2018-12-13T03:02:30.946Z,1021.14
2018-12-13T03:03:30.940Z,1021.14
2018-12-13T03:04:30.916Z,1021.12
2018-12-13T03:05:30.913Z,1021.13
2018-12-13T03:06:30.936Z,1021.13
2018-12-13T03:07:30.885Z,1021.08
2018-12-13T03:08:30.882Z,1021.11
2018-12-13T03:09:30.867Z,1021.11
2018-12-13T03:10:30.855Z,1021.11
2018-12-13T03:11:30.862Z,1021.07
2018-12-13T03:12:30.862Z,1021.07
2018-12-13T03:13:30.831Z,1021.05
2018-12-13T03:14:30.813Z,1021.05
2018-12-13T03:15:30.802Z,1021.08
2018-12-13T03:16:30.791Z,1021.06
2018-12-13T03:17:30.798Z,1020.99
2018-12-13T03:18:30.767Z,1021.07
2018-12-13T03:19:30.756Z,1021.07
2018-12-13T03:20:30.758Z,1021.03
2018-12-13T03:21:30.733Z,1021.07
2018-12-13T03:22:30.736Z,1021.04
2018-12-13T03:23:30.708Z,1021.06
2018-12-13T03:24:30.695Z,1021.08
2018-12-13T03:25:30.692Z,1021.07
2018-12-13T03:26:30.680Z,1021.07
2018-12-13T03:27:30.687Z,1021.07
2018-12-13T03:28:30.658Z,1021.05
2018-12-13T03:29:30.645Z,1021.03
2018-12-13T03:30:30.638Z,1020.98
2018-12-13T03:31:30.623Z,1021.05
2018-12-13T03:32:30.628Z,1021.01
2018-12-13T03:33:30.603Z,1020.97
2018-12-13T03:34:30.594Z,1020.99
2018-12-13T03:35:30.582Z,1020.94
2018-12-13T03:36:30.570Z,1021.01
2018-12-13T03:37:30.586Z,1021.04
2018-12-13T03:38:30.550Z,1021.01
2018-12-13T03:39:30.538Z,1020.99
2018-12-13T03:40:30.541Z,1021.05
2018-12-13T03:41:30.517Z,1021.00
2018-12-13T03:42:30.520Z,1020.98
2018-12-13T03:43:30.497Z,1021.01
2018-12-13T03:44:30.488Z,1020.96
2018-12-13T03:45:30.472Z,1020.96
2018-12-13T03:46:30.462Z,1020.96
2018-12-13T03:47:30.470Z,1020.95
2018-12-13T03:48:30.438Z,1020.93
2018-12-13T03:49:30.429Z,1020.94
2018-12-13T03:50:30.422Z,1020.91
2018-12-13T03:51:30.412Z,1020.92
2018-12-13T03:52:30.423Z,1020.82
2018-12-13T03:53:30.386Z,1020.87
2018-12-13T03:54:30.381Z,1020.88
2018-12-13T03:55:30.366Z,1020.86
2018-12-13T03:56:30.357Z,1020.89
2018-12-13T03:57:30.363Z,1020.83
2018-12-13T03:58:30.344Z,1020.85
2018-12-13T03:59:30.315Z,1020.86
2018-12-13T04:00:30.312Z,1020.78
2018-12-13T04:01:30.294Z,1020.81
2018-12-13T04:02:30.312Z,1020.78
2018-12-13T04:03:30.277Z,1020.80
2018-12-13T04:04:30.268Z,1020.82
2018-12-13T04:05:30.257Z,1020.83
2018-12-13T04:06:30.237Z,1020.86
2018-12-13T04:07:30.236Z,1020.82
2018-12-13T04:08:30.235Z,1020.83
2018-12-13T04:09:30.209Z,1020.84
2018-12-13T04:10:30.209Z,1020.76
2018-12-13T04:11:30.183Z,1020.80
2018-12-13T04:12:30.182Z,1020.76
2018-12-13T04:13:30.180Z,1020.75
2018-12-13T04:14:30.158Z,1020.67
2018-12-13T04:15:30.146Z,1020.68
2018-12-13T04:16:30.131Z,1020.71
2018-12-13T04:17:30.121Z,1020.64
2018-12-13T04:18:30.129Z,1020.68
2018-12-13T04:19:30.100Z,1020.70
2018-12-13T04:20:30.087Z,1020.63
2018-12-13T04:21:30.079Z,1020.62
2018-12-13T04:22:30.065Z,1020.63
2018-12-13T04:23:30.077Z,1020.64
2018-12-13T04:24:30.094Z,1020.66
2018-12-13T04:25:30.037Z,1020.62
2018-12-13T04:26:30.025Z,1020.60
2018-12-13T04:27:30.018Z,1020.58
2018-12-13T04:28:30.026Z,1020.63
2018-12-13T04:29:29.997Z,1020.59
2018-12-13T04:30:29.981Z,1020.68
2018-12-13T04:31:29.972Z,1020.64
2018-12-13T04:32:29.964Z,1020.66
2018-12-13T04:33:29.981Z,1020.65
2018-12-13T04:34:29.939Z,1020.69
2018-12-13T04:35:29.930Z,1020.76
2018-12-13T04:36:29.912Z,1020.72
2018-12-13T04:37:35.249Z,1020.72
2018-12-13T04:38:30.918Z,1020.66
2018-12-13T04:39:29.882Z,1020.66
2018-12-13T04:40:29.867Z,1020.65
2018-12-13T04:41:29.857Z,1020.60
2018-12-13T04:42:29.854Z,1020.58
2018-12-13T04:43:29.843Z,1020.61
2018-12-13T04:44:29.841Z,1020.67
2018-12-13T04:45:29.811Z,1020.71
2018-12-13T04:46:29.807Z,1020.73
2018-12-13T04:47:29.796Z,1020.75
2018-12-13T04:48:29.780Z,1020.70
2018-12-13T04:49:29.796Z,1020.68
2018-12-13T04:50:29.757Z,1020.64
2018-12-13T04:51:29.743Z,1020.70
2018-12-13T04:52:29.739Z,1020.67
2018-12-13T04:53:29.728Z,1020.71
2018-12-13T04:54:29.750Z,1020.73
2018-12-13T04:55:29.703Z,1020.73
2018-12-13T04:56:29.697Z,1020.72
2018-12-13T04:57:29.680Z,1020.68
2018-12-13T04:58:29.683Z,1020.67
2018-12-13T04:59:29.680Z,1020.61
2018-12-13T05:00:29.651Z,1020.64
2018-12-13T05:01:29.641Z,1020.61
2018-12-13T05:02:29.629Z,1020.66
2018-12-13T05:03:29.618Z,1020.61
2018-12-13T05:04:29.623Z,1020.57
2018-12-13T05:05:29.592Z,1020.57
2018-12-13T05:06:29.583Z,1020.66
2018-12-13T05:07:29.571Z,1020.71
2018-12-13T05:08:29.559Z,1020.70
2018-12-13T05:09:29.566Z,1020.69
2018-12-13T05:10:29.549Z,1020.58
2018-12-13T05:11:29.536Z,1020.60
2018-12-13T05:12:29.518Z,1020.61
2018-12-13T05:13:29.505Z,1020.61
2018-12-13T05:14:29.525Z,1020.58
2018-12-13T05:15:29.483Z,1020.57
2018-12-13T05:16:29.473Z,1020.58
2018-12-13T05:17:29.514Z,1020.50
2018-12-13T05:18:29.460Z,1020.47
2018-12-13T05:19:29.465Z,1020.45
2018-12-13T05:20:29.439Z,1020.47
2018-12-13T05:21:29.419Z,1020.46
2018-12-13T05:22:29.407Z,1020.53
2018-12-13T05:23:29.402Z,1020.50
2018-12-13T05:24:29.391Z,1020.47
2018-12-13T05:25:29.399Z,1020.44
2018-12-13T05:26:29.368Z,1020.52
2018-12-13T05:27:29.359Z,1020.49
2018-12-13T05:28:29.340Z,1020.47
2018-12-13T05:29:29.330Z,1020.49
2018-12-13T05:30:29.338Z,1020.50
2018-12-13T05:31:29.310Z,1020.48
2018-12-13T05:32:29.295Z,1020.50
2018-12-13T05:33:29.290Z,1020.45
2018-12-13T05:34:29.278Z,1020.54
2018-12-13T05:35:29.281Z,1020.54
2018-12-13T05:36:29.256Z,1020.56
2018-12-13T05:37:29.240Z,1020.56
2018-12-13T05:38:29.225Z,1020.58
2018-12-13T05:39:29.222Z,1020.56
2018-12-13T05:40:29.252Z,1020.49
2018-12-13T05:41:29.199Z,1020.47
2018-12-13T05:42:29.192Z,1020.46
2018-12-13T05:43:29.180Z,1020.45
2018-12-13T05:44:29.166Z,1020.45
2018-12-13T05:45:29.181Z,1020.45
2018-12-13T05:46:29.142Z,1020.44
2018-12-13T05:47:29.133Z,1020.43
2018-12-13T05:48:29.124Z,1020.41
2018-12-13T05:49:29.111Z,1020.40
2018-12-13T05:50:29.121Z,1020.42
2018-12-13T05:51:29.091Z,1020.40
2018-12-13T05:52:29.080Z,1020.35
2018-12-13T05:53:29.068Z,1020.38
2018-12-13T05:54:29.066Z,1020.38
2018-12-13T05:55:29.083Z,1020.38
2018-12-13T05:56:29.048Z,1020.35
2018-12-13T05:57:29.024Z,1020.33
2018-12-13T05:58:29.013Z,1020.34
2018-12-13T05:59:29.002Z,1020.30
2018-12-13T06:00:29.014Z,1020.27
2018-12-13T06:01:28.980Z,1020.29
2018-12-13T06:02:28.974Z,1020.25
2018-12-13T06:03:28.959Z,1020.27
2018-12-13T06:04:28.946Z,1020.27
2018-12-13T06:05:28.960Z,1020.27
2018-12-13T06:06:28.924Z,1020.32
2018-12-13T06:07:28.919Z,1020.29
2018-12-13T06:08:28.901Z,1020.31
2018-12-13T06:09:28.891Z,1020.31
2018-12-13T06:10:28.903Z,1020.33
2018-12-13T06:11:28.877Z,1020.35
2018-12-13T06:12:28.859Z,1020.30
2018-12-13T06:13:28.858Z,1020.36
2018-12-13T06:14:28.832Z,1020.38
2018-12-13T06:15:28.844Z,1020.40
2018-12-13T06:16:28.832Z,1020.35
2018-12-13T06:17:28.804Z,1020.42
2018-12-13T06:18:28.795Z,1020.42
2018-12-13T06:19:28.791Z,1020.43
2018-12-13T06:20:28.796Z,1020.43
2018-12-13T06:21:28.760Z,1020.45
2018-12-13T06:22:28.752Z,1020.42
2018-12-13T06:23:28.739Z,1020.43
2018-12-13T06:24:28.730Z,1020.43
2018-12-13T06:25:28.733Z,1020.37
2018-12-13T06:26:28.705Z,1020.42
2018-12-13T06:27:28.701Z,1020.44
2018-12-13T06:28:28.686Z,1020.43
2018-12-13T06:29:28.670Z,1020.40
2018-12-13T06:30:28.839Z,1020.43
2018-12-13T06:31:28.654Z,1020.43
2018-12-13T06:32:28.635Z,1020.40
2018-12-13T06:33:28.632Z,1020.37
2018-12-13T06:34:28.615Z,1020.37
2018-12-13T06:35:28.606Z,1020.41
2018-12-13T06:36:28.621Z,1020.43
2018-12-13T06:37:28.586Z,1020.44
2018-12-13T06:38:28.572Z,1020.40
2018-12-13T06:39:28.561Z,1020.43
2018-12-13T06:40:28.553Z,1020.42
2018-12-13T06:41:28.560Z,1020.41
2018-12-13T06:42:28.530Z,1020.40
2018-12-13T06:43:28.520Z,1020.39
2018-12-13T06:44:28.510Z,1020.37
2018-12-13T06:45:28.497Z,1020.41
2018-12-13T06:46:28.556Z,1020.40
2018-12-13T06:47:28.481Z,1020.41
2018-12-13T06:48:28.467Z,1020.37
2018-12-13T06:49:28.456Z,1020.37
2018-12-13T06:50:28.439Z,1020.31
2018-12-13T06:51:28.446Z,1020.37
2018-12-13T06:52:28.434Z,1020.34
2018-12-13T06:53:28.410Z,1020.36
2018-12-13T06:54:28.396Z,1020.38
2018-12-13T06:55:28.384Z,1020.40
2018-12-13T06:56:28.393Z,1020.38
2018-12-13T06:57:28.373Z,1020.46
2018-12-13T06:58:28.366Z,1020.45
2018-12-13T06:59:28.342Z,1020.49
2018-12-13T07:00:28.337Z,1020.47
2018-12-13T07:01:28.343Z,1020.48
2018-12-13T07:02:28.308Z,1020.50
2018-12-13T07:03:28.304Z,1020.51
2018-12-13T07:04:28.289Z,1020.48
2018-12-13T07:05:28.278Z,1020.51
2018-12-13T07:06:28.288Z,1020.47
2018-12-13T07:07:28.255Z,1020.44
2018-12-13T07:08:28.246Z,1020.47
2018-12-13T07:09:28.232Z,1020.35
2018-12-13T07:10:28.227Z,1020.27
2018-12-13T07:11:28.232Z,1020.28
2018-12-13T07:12:28.200Z,1020.23
2018-12-13T07:13:28.189Z,1020.18
2018-12-13T07:14:28.186Z,1020.18
2018-12-13T07:15:28.169Z,1020.25
2018-12-13T07:16:28.180Z,1020.31
2018-12-13T07:17:28.153Z,1020.44
2018-12-13T07:18:28.144Z,1020.44
2018-12-13T07:19:28.125Z,1020.53
2018-12-13T07:20:28.115Z,1020.50
2018-12-13T07:21:28.131Z,1020.53
2018-12-13T07:22:28.106Z,1020.56
2018-12-13T07:23:28.079Z,1020.62
2018-12-13T07:24:28.073Z,1020.63
2018-12-13T07:25:28.062Z,1020.62
2018-12-13T07:26:28.064Z,1020.64
2018-12-13T07:27:28.040Z,1020.67
2018-12-13T07:28:29.064Z,1020.60
2018-12-13T07:29:28.015Z,1020.58
2018-12-13T07:30:28.009Z,1020.63
2018-12-13T07:31:28.036Z,1020.64
2018-12-13T07:32:27.989Z,1020.66
2018-12-13T07:33:27.978Z,1020.67
2018-12-13T07:34:27.966Z,1020.68
2018-12-13T07:35:27.960Z,1020.69
2018-12-13T07:36:27.976Z,1020.69
2018-12-13T07:37:27.934Z,1020.72
2018-12-13T07:38:27.915Z,1020.69
2018-12-13T07:39:27.907Z,1020.67
2018-12-13T07:40:27.896Z,1020.67
2018-12-13T07:41:27.890Z,1020.67
2018-12-13T07:42:27.888Z,1020.70
2018-12-13T07:43:27.866Z,1020.69
2018-12-13T07:44:27.854Z,1020.72
2018-12-13T07:45:27.852Z,1020.69
2018-12-13T07:46:27.840Z,1020.63
2018-12-13T07:47:27.853Z,1020.68
2018-12-13T07:48:27.808Z,1020.69
2018-12-13T07:49:27.802Z,1020.63
2018-12-13T07:50:27.794Z,1020.62
2018-12-13T07:51:27.776Z,1020.67
2018-12-13T07:52:27.783Z,1020.67
2018-12-13T07:53:27.811Z,1020.67
2018-12-13T07:54:27.743Z,1020.68
2018-12-13T07:55:27.731Z,1020.67
2018-12-13T07:56:29.234Z,1020.68
2018-12-13T07:57:27.745Z,1020.71
2018-12-13T07:58:27.702Z,1020.70
2018-12-13T07:59:27.693Z,1020.69
2018-12-13T08:00:27.676Z,1020.71
2018-12-13T08:01:27.664Z,1020.70
2018-12-13T08:02:27.670Z,1020.71
2018-12-13T08:03:27.673Z,1020.71
2018-12-13T08:04:27.643Z,1020.75
2018-12-13T08:05:27.620Z,1020.67
2018-12-13T08:06:27.608Z,1020.72
2018-12-13T08:07:27.615Z,1020.72
2018-12-13T08:08:27.588Z,1020.67
2018-12-13T08:09:27.581Z,1020.67
2018-12-13T08:10:27.565Z,1020.71
2018-12-13T08:11:27.557Z,1020.71
2018-12-13T08:12:27.576Z,1020.69
2018-12-13T08:13:27.534Z,1020.68
2018-12-13T08:14:27.522Z,1020.67
2018-12-13T08:15:27.506Z,1020.65
2018-12-13T08:16:27.497Z,1020.66
2018-12-13T08:17:27.509Z,1020.63
2018-12-13T08:18:27.543Z,1020.66
2018-12-13T08:19:27.470Z,1020.60
2018-12-13T08:20:27.456Z,1020.59
2018-12-13T08:21:27.450Z,1020.62
2018-12-13T08:22:27.455Z,1020.54
2018-12-13T08:23:27.423Z,1020.54
2018-12-13T08:24:27.414Z,1020.59
2018-12-13T08:25:27.408Z,1020.53
2018-12-13T08:26:27.387Z,1020.52
2018-12-13T08:27:27.391Z,1020.49
2018-12-13T08:28:27.367Z,1020.48
2018-12-13T08:29:27.352Z,1020.49
2018-12-13T08:30:27.346Z,1020.49
2018-12-13T08:31:27.335Z,1020.48
2018-12-13T08:32:27.371Z,1020.48
2018-12-13T08:33:27.325Z,1020.48
2018-12-13T08:34:27.298Z,1020.48
2018-12-13T08:35:27.287Z,1020.47
2018-12-13T08:36:27.277Z,1020.48
2018-12-13T08:37:27.289Z,1020.48
2018-12-13T08:38:27.512Z,1020.50
2018-12-13T08:39:27.247Z,1020.51
2018-12-13T08:40:27.242Z,1020.48
2018-12-13T08:41:27.225Z,1020.48
2018-12-13T08:42:27.248Z,1020.52
2018-12-13T08:43:27.197Z,1020.52
2018-12-13T08:44:27.205Z,1020.51
2018-12-13T08:45:27.176Z,1020.51
2018-12-13T08:46:27.845Z,1020.52
2018-12-13T08:47:30.251Z,1020.50
2018-12-13T08:48:27.521Z,1020.50
2018-12-13T08:49:27.607Z,1020.54
2018-12-13T08:50:27.119Z,1020.56
2018-12-13T08:51:27.106Z,1020.54
2018-12-13T08:52:27.103Z,1020.55
2018-12-13T08:53:27.130Z,1020.57
2018-12-13T08:54:27.095Z,1020.57
2018-12-13T08:55:27.072Z,1020.60
2018-12-13T08:56:27.057Z,1020.54
2018-12-13T08:57:27.047Z,1020.56
2018-12-13T08:58:27.047Z,1020.58
2018-12-13T08:59:27.030Z,1020.57
2018-12-13T09:00:27.014Z,1020.58
2018-12-13T09:01:27.002Z,1020.56
2018-12-13T09:02:27.003Z,1020.58
2018-12-13T09:03:27.001Z,1020.56
2018-12-13T09:04:26.978Z,1020.56
2018-12-13T09:05:26.962Z,1020.49
2018-12-13T09:06:26.945Z,1020.52
2018-12-13T09:07:26.941Z,1020.49
2018-12-13T09:08:26.962Z,1020.54
2018-12-13T09:09:26.910Z,1020.55
2018-12-13T09:10:26.918Z,1020.54
2018-12-13T09:11:26.954Z,1020.55
2018-12-13T09:12:26.895Z,1020.61
2018-12-13T09:13:26.898Z,1020.63
2018-12-13T09:14:26.862Z,1020.61
2018-12-13T09:15:26.845Z,1020.65
2018-12-13T09:16:31.487Z,1020.67
2018-12-13T09:17:26.828Z,1020.66
2018-12-13T09:18:26.827Z,1020.65
2018-12-13T09:19:26.866Z,1020.63
2018-12-13T09:20:26.793Z,1020.58
2018-12-13T09:21:26.781Z,1020.62
2018-12-13T09:22:26.767Z,1020.62
2018-12-13T09:23:26.784Z,1020.66
2018-12-13T09:24:26.748Z,1020.62
2018-12-13T09:25:26.734Z,1020.61
2018-12-13T09:26:26.724Z,1020.61
2018-12-13T09:27:26.710Z,1020.63
2018-12-13T09:28:26.732Z,1020.64
2018-12-13T09:29:26.692Z,1020.69
2018-12-13T09:30:26.686Z,1020.62
2018-12-13T09:31:26.671Z,1020.63
2018-12-13T09:32:26.667Z,1020.66
2018-12-13T09:33:26.662Z,1020.64
2018-12-13T09:34:26.635Z,1020.64
2018-12-13T09:35:26.629Z,1020.60
2018-12-13T09:36:26.618Z,1020.63
2018-12-13T09:37:26.600Z,1020.60
2018-12-13T09:38:27.393Z,1020.61
2018-12-13T09:39:26.602Z,1020.59
2018-12-13T09:40:26.573Z,1020.63
2018-12-13T09:41:26.560Z,1020.65
2018-12-13T09:42:26.546Z,1020.58
2018-12-13T09:43:26.534Z,1020.63
2018-12-13T09:44:26.551Z,1020.62
2018-12-13T09:45:26.516Z,1020.58
2018-12-13T09:46:26.522Z,1020.63
2018-12-13T09:47:26.490Z,1020.57
2018-12-13T09:48:26.524Z,1020.54
2018-12-13T09:49:26.678Z,1020.55
2018-12-13T09:50:26.674Z,1020.53
2018-12-13T09:51:26.446Z,1020.52
2018-12-13T09:52:26.434Z,1020.49
2018-12-13T09:53:26.425Z,1020.50
2018-12-13T09:54:26.442Z,1020.44
2018-12-13T09:55:26.418Z,1020.43
2018-12-13T09:56:26.387Z,1020.43
2018-12-13T09:57:26.381Z,1020.40
2018-12-13T09:58:26.407Z,1020.47
2018-12-13T09:59:26.381Z,1020.37
2018-12-13T10:00:26.351Z,1020.41
2018-12-13T10:01:26.354Z,1020.33
2018-12-13T10:02:26.323Z,1020.40
2018-12-13T10:03:26.307Z,1020.39
2018-12-13T10:04:26.512Z,1020.33
2018-12-13T10:05:26.298Z,1020.34
2018-12-13T10:06:26.281Z,1020.32
2018-12-13T10:07:26.302Z,1020.32
2018-12-13T10:08:26.257Z,1020.33
2018-12-13T10:09:26.265Z,1020.31
2018-12-13T10:10:26.244Z,1020.33
2018-12-13T10:11:26.984Z,1020.30
2018-12-13T10:12:26.214Z,1020.31
2018-12-13T10:13:26.198Z,1020.27
2018-12-13T10:14:26.226Z,1020.30
2018-12-13T10:15:31.788Z,1020.29
2018-12-13T10:16:27.164Z,1020.29
2018-12-13T10:17:26.157Z,1020.27
2018-12-13T10:18:26.149Z,1020.27
2018-12-13T10:19:26.170Z,1020.26
2018-12-13T10:20:26.166Z,1020.26
2018-12-13T10:21:26.114Z,1020.21
2018-12-13T10:22:26.097Z,1020.22
2018-12-13T10:23:26.088Z,1020.25
2018-12-13T10:24:26.104Z,1020.22
2018-12-13T10:25:26.064Z,1020.24
2018-12-13T10:26:26.054Z,1020.21
2018-12-13T10:27:26.042Z,1020.22
2018-12-13T10:28:26.031Z,1020.19
2018-12-13T10:29:26.045Z,1020.22
2018-12-13T10:30:26.032Z,1020.22
2018-12-13T10:31:26.000Z,1020.20
2018-12-13T10:32:26.007Z,1020.17
2018-12-13T10:33:25.977Z,1020.19
2018-12-13T10:34:26.132Z,1020.16
2018-12-13T10:35:25.971Z,1020.15
2018-12-13T10:36:25.945Z,1020.18
2018-12-13T10:37:25.946Z,1020.19
2018-12-13T10:38:25.926Z,1020.14
2018-12-13T10:39:25.912Z,1020.11
2018-12-13T10:40:25.917Z,1020.11
2018-12-13T10:41:25.890Z,1020.10
2018-12-13T10:42:25.887Z,1020.08
2018-12-13T10:43:25.867Z,1020.07
2018-12-13T10:44:25.863Z,1020.07
2018-12-13T10:45:25.868Z,1020.03
2018-12-13T10:46:25.842Z,1020.04
2018-12-13T10:47:25.828Z,1020.03
2018-12-13T10:48:25.809Z,1019.97
2018-12-13T10:49:25.817Z,1020.01
2018-12-13T10:50:25.816Z,1019.97
2018-12-13T10:51:25.783Z,1019.98
2018-12-13T10:52:25.815Z,1019.98
2018-12-13T10:53:25.758Z,1019.93
2018-12-13T10:54:25.751Z,1019.96
2018-12-13T10:55:25.757Z,1019.99
2018-12-13T10:56:25.721Z,1019.99
2018-12-13T10:57:25.721Z,1020.00
2018-12-13T10:58:25.740Z,1020.02
2018-12-13T10:59:25.690Z,1019.98
2018-12-13T11:00:25.692Z,1020.01
2018-12-13T11:01:25.669Z,1019.98
2018-12-13T11:02:25.658Z,1019.98
2018-12-13T11:03:25.654Z,1020.03
2018-12-13T11:04:25.634Z,1019.99
2018-12-13T11:05:25.653Z,1020.01
2018-12-13T11:06:25.611Z,1019.98
2018-12-13T11:07:25.601Z,1020.00
2018-12-13T11:08:25.592Z,1020.01
2018-12-13T11:09:25.578Z,1020.00
2018-12-13T11:10:25.607Z,1019.98
2018-12-13T11:11:25.561Z,1019.98
2018-12-13T11:12:25.542Z,1019.95
2018-12-13T11:13:25.535Z,1019.95
2018-12-13T11:14:25.523Z,1019.94
2018-12-13T11:15:25.531Z,1019.97
2018-12-13T11:16:25.505Z,1019.97
2018-12-13T11:17:25.493Z,1019.92
2018-12-13T11:18:25.480Z,1019.95
2018-12-13T11:19:25.474Z,1019.97
2018-12-13T11:20:25.490Z,1020.00
2018-12-13T11:21:25.444Z,1019.98
2018-12-13T11:22:25.436Z,1019.92
2018-12-13T11:23:25.428Z,1020.00
2018-12-13T11:24:25.433Z,1019.93
2018-12-13T11:25:25.403Z,1019.97
2018-12-13T11:26:25.429Z,1019.94
2018-12-13T11:27:25.415Z,1019.96
2018-12-13T11:28:25.372Z,1019.91
2018-12-13T11:29:25.358Z,1019.91
2018-12-13T11:30:25.353Z,1019.91
2018-12-13T11:31:25.357Z,1019.93
2018-12-13T11:32:25.324Z,1019.94
2018-12-13T11:33:25.324Z,1019.94
2018-12-13T11:34:25.308Z,1019.94
2018-12-13T11:35:25.304Z,1019.93
2018-12-13T11:36:25.306Z,1019.99
2018-12-13T11:37:25.282Z,1020.01
2018-12-13T11:38:25.256Z,1019.99
2018-12-13T11:39:25.284Z,1019.98
2018-12-13T11:40:25.236Z,1020.04
2018-12-13T11:41:25.244Z,1020.05
2018-12-13T11:42:25.217Z,1020.03
2018-12-13T11:43:25.205Z,1019.98
2018-12-13T11:44:25.196Z,1020.00
2018-12-13T11:45:25.180Z,1020.01
2018-12-13T11:46:25.196Z,1019.97
2018-12-13T11:47:25.165Z,1020.01
2018-12-13T11:48:25.154Z,1019.96
2018-12-13T11:49:25.134Z,1020.06
2018-12-13T11:50:25.131Z,1020.03
2018-12-13T11:51:26.435Z,1019.94
2018-12-13T11:52:25.108Z,1020.00
2018-12-13T11:53:25.098Z,1019.99
2018-12-13T11:54:25.084Z,1020.00
2018-12-13T11:55:25.075Z,1019.98
2018-12-13T11:56:25.090Z,1019.93
2018-12-13T11:57:25.052Z,1019.90
2018-12-13T11:58:25.057Z,1019.92
2018-12-13T11:59:25.036Z,1019.96
2018-12-13T12:00:25.022Z,1019.94
2018-12-13T12:01:25.027Z,1019.92
2018-12-13T12:02:25.010Z,1019.93
2018-12-13T12:03:24.990Z,1019.89
2018-12-13T12:04:24.974Z,1019.93
2018-12-13T12:05:24.968Z,1019.89
2018-12-13T12:06:24.950Z,1019.94